createdAt,value
2019-02-24T00:01:50.473Z,22.00
2019-02-24T00:04:19.568Z,19.45
2019-02-24T00:06:48.734Z,22.00
2019-02-24T00:09:17.823Z,20.85
2019-02-24T00:11:46.933Z,22.87
2019-02-24T00:14:16.111Z,21.87
2019-02-24T00:16:45.207Z,19.80
2019-02-24T00:19:14.361Z,19.70
2019-02-24T00:21:43.515Z,19.65
2019-02-24T00:24:12.693Z,16.50
2019-02-24T00:26:41.837Z,19.20
2019-02-24T00:29:10.988Z,22.50
2019-02-24T00:31:40.139Z,20.68
2019-02-24T00:34:09.275Z,18.17
2019-02-24T00:36:38.403Z,21.30
2019-02-24T00:39:07.495Z,17.55
2019-02-24T00:41:36.675Z,21.27
2019-02-24T00:44:05.795Z,20.57
2019-02-24T00:46:34.908Z,19.82
2019-02-24T00:49:04.023Z,22.70
2019-02-24T00:51:33.148Z,19.98
2019-02-24T00:54:02.266Z,18.10
2019-02-24T00:56:31.394Z,21.50
2019-02-24T00:59:00.518Z,19.60
2019-02-24T01:01:29.606Z,19.95
2019-02-24T01:03:58.779Z,21.23
2019-02-24T01:06:27.876Z,22.65
2019-02-24T01:08:57.063Z,19.30
2019-02-24T01:11:26.247Z,20.48
2019-02-24T01:13:55.343Z,20.57
2019-02-24T01:16:24.441Z,20.00
2019-02-24T01:18:53.536Z,19.50
2019-02-24T01:21:22.706Z,22.95
2019-02-24T01:23:51.817Z,20.43
2019-02-24T01:26:20.918Z,24.75
2019-02-24T01:28:50.015Z,20.68
2019-02-24T01:31:19.104Z,22.13
2019-02-24T01:33:48.211Z,23.32
2019-02-24T01:36:17.328Z,19.02
2019-02-24T01:38:46.426Z,21.33
2019-02-24T01:41:15.507Z,22.05
2019-02-24T01:43:44.618Z,25.20
2019-02-24T01:46:13.781Z,18.07
2019-02-24T01:48:42.932Z,20.00
2019-02-24T01:51:12.107Z,21.82
2019-02-24T01:53:41.274Z,23.07
2019-02-24T01:56:10.889Z,18.55
2019-02-24T01:58:40.053Z,21.17
2019-02-24T02:01:09.183Z,21.90
2019-02-24T02:03:38.268Z,22.80
2019-02-24T02:06:07.459Z,23.27
2019-02-24T02:08:36.588Z,23.27
2019-02-24T02:11:05.758Z,21.60
2019-02-24T02:13:34.963Z,22.15
2019-02-24T02:16:04.158Z,23.42
2019-02-24T02:18:33.268Z,20.68
2019-02-24T02:21:02.375Z,23.95
2019-02-24T02:23:31.508Z,21.10
2019-02-24T02:26:00.620Z,24.60
2019-02-24T02:28:29.704Z,23.83
2019-02-24T02:30:58.809Z,20.95
2019-02-24T02:33:27.920Z,19.82
2019-02-24T02:35:57.059Z,17.75
2019-02-24T02:38:26.166Z,18.48
2019-02-24T02:40:55.268Z,19.55
2019-02-24T02:43:24.363Z,20.02
2019-02-24T02:45:53.541Z,24.02
2019-02-24T02:48:22.733Z,18.50
2019-02-24T02:50:51.929Z,18.30
2019-02-24T02:53:21.049Z,25.40
2019-02-24T02:55:50.244Z,22.42
2019-02-24T02:58:19.354Z,19.12
2019-02-24T03:00:48.548Z,19.98
2019-02-24T03:03:17.633Z,21.60
2019-02-24T03:05:58.449Z,21.25
2019-02-24T03:08:55.816Z,23.98
2019-02-24T03:11:24.929Z,22.80
2019-02-24T03:13:54.023Z,25.52
2019-02-24T03:16:26.287Z,24.85
2019-02-24T03:18:55.428Z,24.35
2019-02-24T03:21:24.636Z,18.98
2019-02-24T03:23:53.820Z,17.87
2019-02-24T03:26:23.000Z,19.00
2019-02-24T03:28:52.116Z,21.27
2019-02-24T03:31:21.244Z,20.32
2019-02-24T03:33:50.377Z,22.37
2019-02-24T03:36:19.483Z,22.98
2019-02-24T03:38:48.653Z,22.60
2019-02-24T03:41:17.749Z,22.35
2019-02-24T03:43:46.984Z,17.73
2019-02-24T03:46:16.195Z,20.02
2019-02-24T03:48:45.318Z,18.05
2019-02-24T03:51:14.463Z,24.70
2019-02-24T03:53:43.719Z,24.52
2019-02-24T03:56:12.912Z,21.82
2019-02-24T03:58:42.173Z,20.82
2019-02-24T04:01:11.526Z,19.95
2019-02-24T04:03:40.924Z,18.62
2019-02-24T04:06:10.119Z,15.80
2019-02-24T04:08:39.229Z,21.40
2019-02-24T04:11:08.355Z,21.45
2019-02-24T04:13:37.443Z,22.52
2019-02-24T04:16:06.636Z,21.87
2019-02-24T04:18:35.732Z,27.42
2019-02-24T04:21:04.995Z,21.75
2019-02-24T04:23:34.175Z,20.02
2019-02-24T04:26:03.376Z,25.62
2019-02-24T04:28:32.545Z,19.20
2019-02-24T04:31:01.680Z,15.55
2019-02-24T04:33:30.869Z,17.67
2019-02-24T04:35:59.976Z,16.42
2019-02-24T04:38:29.063Z,18.40
2019-02-24T04:40:58.191Z,19.48
2019-02-24T04:43:27.291Z,17.30
2019-02-24T04:45:56.471Z,23.62
2019-02-24T04:48:25.652Z,20.77
2019-02-24T04:50:54.832Z,21.17
2019-02-24T04:53:24.024Z,20.70
2019-02-24T04:55:53.148Z,22.27
2019-02-24T04:58:22.239Z,20.92
2019-02-24T05:00:51.359Z,22.58
2019-02-24T05:03:20.468Z,21.80
2019-02-24T05:05:49.572Z,24.52
2019-02-24T05:08:18.778Z,18.82
2019-02-24T05:10:47.983Z,21.68
2019-02-24T05:13:17.157Z,20.35
2019-02-24T05:15:46.263Z,22.22
2019-02-24T05:18:15.371Z,19.60
2019-02-24T05:20:44.625Z,24.23
2019-02-24T05:23:13.818Z,22.27
2019-02-24T05:25:43.014Z,22.58
2019-02-24T05:28:12.192Z,20.70
2019-02-24T05:30:41.300Z,20.75
2019-02-24T05:33:10.401Z,23.22
2019-02-24T05:35:39.523Z,20.52
2019-02-24T05:38:08.636Z,19.70
2019-02-24T05:40:37.760Z,19.50
2019-02-24T05:43:06.929Z,23.65
2019-02-24T05:45:36.026Z,18.98
2019-02-24T05:48:05.297Z,18.70
2019-02-24T05:50:34.402Z,22.98
2019-02-24T05:53:03.536Z,17.52
2019-02-24T05:55:32.735Z,19.80
2019-02-24T05:58:01.931Z,23.85
2019-02-24T06:00:31.040Z,18.73
2019-02-24T06:03:00.236Z,23.67
2019-02-24T06:05:29.507Z,23.50
2019-02-24T06:07:58.680Z,18.95
2019-02-24T06:10:27.783Z,22.05
2019-02-24T06:12:56.900Z,22.13
2019-02-24T06:15:26.042Z,20.08
2019-02-24T06:17:55.197Z,21.30
2019-02-24T06:20:24.292Z,24.55
2019-02-24T06:22:53.430Z,20.00
2019-02-24T06:25:22.910Z,23.60
2019-02-24T06:27:52.190Z,20.27
2019-02-24T06:30:21.377Z,25.62
2019-02-24T06:32:50.569Z,22.22
2019-02-24T06:35:19.667Z,24.47
2019-02-24T06:37:48.827Z,23.80
2019-02-24T06:40:18.073Z,19.95
2019-02-24T06:42:47.192Z,24.52
2019-02-24T06:45:16.306Z,21.85
2019-02-24T06:47:45.424Z,34.98
2019-02-24T06:50:14.580Z,21.73
2019-02-24T06:52:43.693Z,31.57
2019-02-24T06:55:12.870Z,21.02
2019-02-24T06:57:41.997Z,19.02
2019-02-24T07:00:14.020Z,19.02
2019-02-24T07:02:42.456Z,22.93
2019-02-24T07:05:13.136Z,19.85
2019-02-24T07:07:42.307Z,21.27
2019-02-24T07:10:11.441Z,21.73
2019-02-24T07:12:43.802Z,19.95
2019-02-24T07:15:13.031Z,19.27
2019-02-24T07:17:42.162Z,17.65
2019-02-24T07:20:11.328Z,19.90
2019-02-24T07:22:40.517Z,17.92
2019-02-24T07:25:09.844Z,30.17
2019-02-24T07:27:39.145Z,21.85
2019-02-24T07:30:08.811Z,22.22
2019-02-24T07:32:37.979Z,25.40
2019-02-24T07:35:07.194Z,18.50
2019-02-24T07:37:36.331Z,22.05
2019-02-24T07:40:05.671Z,17.77
2019-02-24T07:42:34.776Z,19.87
2019-02-24T07:45:05.172Z,16.62
2019-02-24T07:47:34.392Z,20.12
2019-02-24T07:50:03.676Z,21.40
2019-02-24T07:52:32.837Z,19.20
2019-02-24T07:55:02.055Z,21.40
2019-02-24T07:57:31.195Z,19.75
2019-02-24T08:00:00.340Z,16.80
2019-02-24T08:02:29.487Z,25.08
2019-02-24T08:04:58.704Z,19.62
2019-02-24T08:07:27.915Z,18.67
2019-02-24T08:09:57.024Z,19.73
2019-02-24T08:12:29.456Z,21.70
2019-02-24T08:14:58.608Z,21.60
2019-02-24T08:17:27.747Z,21.93
2019-02-24T08:19:56.892Z,20.88
2019-02-24T08:22:26.039Z,22.42
2019-02-24T08:24:55.140Z,23.50
2019-02-24T08:27:24.250Z,20.05
2019-02-24T08:29:53.456Z,19.50
2019-02-24T08:32:22.563Z,21.35
2019-02-24T08:34:53.093Z,18.37
2019-02-24T08:37:22.447Z,17.70
2019-02-24T08:39:51.565Z,15.88
2019-02-24T08:42:20.691Z,18.30
2019-02-24T08:44:49.789Z,22.93
2019-02-24T08:47:18.968Z,21.17
2019-02-24T08:49:48.144Z,17.48
2019-02-24T08:52:30.202Z,21.33
2019-02-24T08:54:59.402Z,22.05
2019-02-24T08:57:28.528Z,16.95
2019-02-24T08:59:57.623Z,18.37
2019-02-24T09:02:26.773Z,19.35
2019-02-24T09:04:55.901Z,22.05
2019-02-24T09:07:25.125Z,18.52
2019-02-24T09:09:54.300Z,21.07
2019-02-24T09:12:23.476Z,16.48
2019-02-24T09:14:52.575Z,22.00
2019-02-24T09:17:21.679Z,23.42
2019-02-24T09:19:50.859Z,17.57
2019-02-24T09:22:20.108Z,19.52
2019-02-24T09:24:49.327Z,26.45
2019-02-24T09:27:18.457Z,18.65
2019-02-24T09:29:47.615Z,22.65
2019-02-24T09:32:17.080Z,23.60
2019-02-24T09:34:46.217Z,22.17
2019-02-24T09:37:15.415Z,18.52
2019-02-24T09:39:44.565Z,25.43
2019-02-24T09:42:13.668Z,22.77
2019-02-24T09:44:42.792Z,22.93
2019-02-24T09:47:11.973Z,24.85
2019-02-24T09:49:41.160Z,26.02
2019-02-24T09:52:10.244Z,20.02
2019-02-24T09:54:39.371Z,17.35
2019-02-24T09:57:08.530Z,22.42
2019-02-24T09:59:37.652Z,20.25
2019-02-24T10:02:06.758Z,18.45
2019-02-24T10:04:35.890Z,22.48
2019-02-24T10:07:05.071Z,19.52
2019-02-24T10:09:34.171Z,19.30
2019-02-24T10:12:03.276Z,20.52
2019-02-24T10:14:32.428Z,17.65
2019-02-24T10:17:01.695Z,20.17
2019-02-24T10:19:31.313Z,20.02
2019-02-24T10:22:00.597Z,22.77
2019-02-24T10:24:29.756Z,19.37
2019-02-24T10:26:58.983Z,23.22
2019-02-24T10:29:28.207Z,18.87
2019-02-24T10:31:57.333Z,17.02
2019-02-24T10:34:26.459Z,18.75
2019-02-24T10:36:55.651Z,20.08
2019-02-24T10:39:29.660Z,18.00
2019-02-24T10:41:55.592Z,20.02
2019-02-24T10:44:24.676Z,24.90
2019-02-24T10:46:53.842Z,21.80
2019-02-24T10:49:23.076Z,18.00
2019-02-24T10:51:52.327Z,18.20
2019-02-24T10:54:21.447Z,21.87
2019-02-24T10:56:50.657Z,22.20
2019-02-24T10:59:19.788Z,20.70
2019-02-24T11:01:48.960Z,16.90
2019-02-24T11:04:18.172Z,16.57
2019-02-24T11:06:47.306Z,15.78
2019-02-24T11:09:18.886Z,17.35
2019-02-24T11:11:56.903Z,16.60
2019-02-24T11:14:26.155Z,18.55
2019-02-24T11:16:55.344Z,20.52
2019-02-24T11:19:24.484Z,15.80
2019-02-24T11:21:53.715Z,17.07
2019-02-24T11:24:22.866Z,17.10
2019-02-24T11:26:52.005Z,14.80
2019-02-24T11:29:21.099Z,14.30
2019-02-24T11:31:50.195Z,12.25
2019-02-24T11:34:23.946Z,11.40
2019-02-24T11:36:53.092Z,12.65
2019-02-24T11:39:22.182Z,14.55
2019-02-24T11:41:51.540Z,11.20
2019-02-24T11:44:20.664Z,11.03
2019-02-24T11:46:49.977Z,12.30
2019-02-24T11:49:19.121Z,14.87
2019-02-24T11:51:48.275Z,11.97
2019-02-24T11:54:17.479Z,14.78
2019-02-24T11:56:46.805Z,11.08
2019-02-24T11:59:16.028Z,12.93
2019-02-24T12:01:47.610Z,10.55
2019-02-24T12:04:16.189Z,11.75
2019-02-24T12:06:45.299Z,11.48
2019-02-24T12:09:14.595Z,10.70
2019-02-24T12:11:43.776Z,11.38
2019-02-24T12:14:12.922Z,14.65
2019-02-24T12:16:42.024Z,10.85
2019-02-24T12:19:11.134Z,11.12
2019-02-24T12:21:40.363Z,11.55
2019-02-24T12:24:09.532Z,8.78
2019-02-24T12:26:38.652Z,9.10
2019-02-24T12:29:07.819Z,10.05
2019-02-24T12:31:36.947Z,15.72
2019-02-24T12:34:06.309Z,11.05
2019-02-24T12:36:35.397Z,10.10
2019-02-24T12:39:05.563Z,11.40
2019-02-24T12:41:34.643Z,11.63
2019-02-24T12:44:03.853Z,9.83
2019-02-24T12:46:33.030Z,9.48
2019-02-24T12:49:02.266Z,9.20
2019-02-24T12:51:31.554Z,15.38
2019-02-24T12:54:00.860Z,9.83
2019-02-24T12:56:29.964Z,9.15
2019-02-24T12:58:59.217Z,7.45
2019-02-24T13:01:28.464Z,8.80
2019-02-24T13:03:57.691Z,10.50
2019-02-24T13:06:26.961Z,9.48
2019-02-24T13:08:56.140Z,9.50
2019-02-24T13:11:25.256Z,9.80
2019-02-24T13:13:54.363Z,8.65
2019-02-24T13:16:23.571Z,9.05
2019-02-24T13:18:52.846Z,9.20
2019-02-24T13:21:22.052Z,9.03
2019-02-24T13:23:51.158Z,11.15
2019-02-24T13:26:20.556Z,10.78
2019-02-24T13:28:50.717Z,12.75
2019-02-24T13:31:20.029Z,8.80
2019-02-24T13:33:49.280Z,9.50
2019-02-24T13:36:18.364Z,11.00
2019-02-24T13:38:47.470Z,9.75
2019-02-24T13:41:16.657Z,7.72
2019-02-24T13:43:45.850Z,10.58
2019-02-24T13:46:14.935Z,8.58
2019-02-24T13:48:44.069Z,9.35
2019-02-24T13:51:13.237Z,11.30
2019-02-24T13:53:42.311Z,12.80
2019-02-24T13:56:11.414Z,10.38
2019-02-24T13:58:40.628Z,8.85
2019-02-24T14:01:09.755Z,15.58
2019-02-24T14:03:38.933Z,9.25
2019-02-24T14:06:08.052Z,13.08
2019-02-24T14:08:37.135Z,9.53
2019-02-24T14:11:06.372Z,8.10
2019-02-24T14:13:35.463Z,9.88
2019-02-24T14:16:04.769Z,10.03
2019-02-24T14:18:33.904Z,12.35
2019-02-24T14:21:03.024Z,10.30
2019-02-24T14:23:32.132Z,9.00
2019-02-24T14:26:01.289Z,10.72
2019-02-24T14:28:30.400Z,8.13
2019-02-24T14:30:59.508Z,8.25
2019-02-24T14:33:28.637Z,9.28
2019-02-24T14:35:57.799Z,8.63
2019-02-24T14:38:27.263Z,8.03
2019-02-24T14:40:56.432Z,11.70
2019-02-24T14:43:25.517Z,8.95
2019-02-24T14:45:54.710Z,11.65
2019-02-24T14:48:23.856Z,7.10
2019-02-24T14:50:53.212Z,8.45
2019-02-24T14:53:22.291Z,11.63
2019-02-24T14:55:51.417Z,11.95
2019-02-24T14:58:20.532Z,10.28
2019-02-24T15:00:49.675Z,7.45
2019-02-24T15:03:18.765Z,12.78
2019-02-24T15:05:47.877Z,8.93
2019-02-24T15:08:17.031Z,9.18
2019-02-24T15:10:48.232Z,9.20
2019-02-24T15:13:17.201Z,7.55
2019-02-24T15:15:46.376Z,8.55
2019-02-24T15:18:15.464Z,6.95
2019-02-24T15:20:44.543Z,6.70
2019-02-24T15:23:13.653Z,8.10
2019-02-24T15:25:42.943Z,7.80
2019-02-24T15:28:12.029Z,8.35
2019-02-24T15:30:41.128Z,6.22
2019-02-24T15:33:10.325Z,6.05
2019-02-24T15:35:39.479Z,7.80
2019-02-24T15:38:08.682Z,7.30
2019-02-24T15:40:37.875Z,10.20
2019-02-24T15:43:07.019Z,8.18
2019-02-24T15:45:36.191Z,10.78
2019-02-24T15:48:05.359Z,13.30
2019-02-24T15:50:34.456Z,11.33
2019-02-24T15:53:03.540Z,12.40
2019-02-24T15:55:32.637Z,8.10
2019-02-24T15:58:01.724Z,12.90
2019-02-24T16:00:31.000Z,12.82
2019-02-24T16:03:01.844Z,8.70
2019-02-24T16:05:30.983Z,10.53
2019-02-24T16:08:00.055Z,9.20
2019-02-24T16:10:29.188Z,9.08
2019-02-24T16:12:58.376Z,8.00
2019-02-24T16:15:27.694Z,14.68
2019-02-24T16:17:56.913Z,22.15
2019-02-24T16:20:26.284Z,11.83
2019-02-24T16:22:55.953Z,10.68
2019-02-24T16:25:25.070Z,15.55
2019-02-24T16:27:54.419Z,20.60
2019-02-24T16:30:23.534Z,19.80
2019-02-24T16:32:52.703Z,22.22
2019-02-24T16:35:21.807Z,12.45
2019-02-24T16:37:50.904Z,14.20
2019-02-24T16:40:20.063Z,12.68
2019-02-24T16:42:50.484Z,17.07
2019-02-24T16:45:19.940Z,15.10
2019-02-24T16:47:49.038Z,17.15
2019-02-24T16:50:18.339Z,19.50
2019-02-24T16:52:47.567Z,12.50
2019-02-24T16:55:16.835Z,24.82
2019-02-24T16:57:45.913Z,11.55
2019-02-24T17:00:17.522Z,17.98
2019-02-24T17:02:46.594Z,9.18
2019-02-24T17:05:15.828Z,19.67
2019-02-24T17:07:45.019Z,14.28
2019-02-24T17:10:16.011Z,25.68
2019-02-24T17:12:46.170Z,25.32
2019-02-24T17:15:15.327Z,14.43
2019-02-24T17:17:44.432Z,17.37
2019-02-24T17:20:15.620Z,17.27
2019-02-24T17:22:44.769Z,20.32
2019-02-24T17:25:14.044Z,17.00
2019-02-24T17:27:43.228Z,17.77
2019-02-24T17:30:12.901Z,16.55
2019-02-24T17:32:42.133Z,16.85
2019-02-24T17:35:11.515Z,16.55
2019-02-24T17:37:40.744Z,10.80
2019-02-24T17:40:11.381Z,16.67
2019-02-24T17:42:40.635Z,14.53
2019-02-24T17:45:11.200Z,20.57
2019-02-24T17:47:40.728Z,17.10
2019-02-24T17:50:10.693Z,17.05
2019-02-24T17:52:40.043Z,17.27
2019-02-24T17:55:12.467Z,13.48
2019-02-24T17:57:41.928Z,14.87
2019-02-24T18:00:17.452Z,17.98
2019-02-24T18:02:47.335Z,15.05
2019-02-24T18:05:17.251Z,19.70
2019-02-24T18:07:48.553Z,21.25
2019-02-24T18:10:17.820Z,13.28
2019-02-24T18:12:46.908Z,12.85
2019-02-24T18:15:16.272Z,12.45
2019-02-24T18:17:45.359Z,12.73
2019-02-24T18:20:14.681Z,11.50
2019-02-24T18:22:43.845Z,19.65
2019-02-24T18:25:13.212Z,11.57
2019-02-24T18:27:42.329Z,13.80
2019-02-24T18:30:14.858Z,15.35
2019-02-24T18:32:44.111Z,12.50
2019-02-24T18:35:13.375Z,13.55
2019-02-24T18:37:42.555Z,10.18
2019-02-24T18:40:14.518Z,10.53
2019-02-24T18:42:43.779Z,16.27
2019-02-24T18:45:13.717Z,13.65
2019-02-24T18:47:44.360Z,15.48
2019-02-24T18:50:13.690Z,15.10
2019-02-24T18:52:45.106Z,15.48
2019-02-24T18:55:14.417Z,11.80
2019-02-24T18:57:45.329Z,13.98
2019-02-24T19:00:15.636Z,11.33
2019-02-24T19:02:44.833Z,13.80
2019-02-24T19:05:14.167Z,13.38
2019-02-24T19:07:43.341Z,14.18
2019-02-24T19:10:14.191Z,15.88
2019-02-24T19:12:43.656Z,16.75
2019-02-24T19:15:15.322Z,14.45
2019-02-24T19:17:44.649Z,20.17
2019-02-24T19:20:15.752Z,16.37
2019-02-24T19:22:45.188Z,15.83
2019-02-24T19:25:15.939Z,19.75
2019-02-24T19:27:45.216Z,19.00
2019-02-24T19:30:15.080Z,16.05
2019-02-24T19:32:44.401Z,29.57
2019-02-24T19:35:14.143Z,15.75
2019-02-24T19:37:43.319Z,19.25
2019-02-24T19:40:13.626Z,18.55
2019-02-24T19:42:42.747Z,21.45
2019-02-24T19:45:13.123Z,18.75
2019-02-24T19:47:42.304Z,16.27
2019-02-24T19:50:15.527Z,15.78
2019-02-24T19:52:44.639Z,15.32
2019-02-24T19:55:14.023Z,21.42
2019-02-24T19:57:43.196Z,18.35
2019-02-24T20:00:15.613Z,17.20
2019-02-24T20:02:44.856Z,17.32
2019-02-24T20:05:14.156Z,14.80
2019-02-24T20:07:43.491Z,17.55
2019-02-24T20:10:15.393Z,18.85
2019-02-24T20:12:44.450Z,17.98
2019-02-24T20:15:14.250Z,16.90
2019-02-24T20:17:43.357Z,20.90
2019-02-24T20:20:13.044Z,19.60
2019-02-24T20:22:42.277Z,17.50
2019-02-24T20:25:12.019Z,18.40
2019-02-24T20:27:41.133Z,24.67
2019-02-24T20:30:21.654Z,22.58
2019-02-24T20:32:50.880Z,21.37
2019-02-24T20:35:20.076Z,24.70
2019-02-24T20:37:49.275Z,25.00
2019-02-24T20:40:18.459Z,24.77
2019-02-24T20:42:47.633Z,24.57
2019-02-24T20:45:17.992Z,26.37
2019-02-24T20:47:47.106Z,27.75
2019-02-24T20:50:17.407Z,21.42
2019-02-24T20:52:46.546Z,22.93
2019-02-24T20:55:15.872Z,22.45
2019-02-24T20:57:45.059Z,23.18
2019-02-24T21:00:17.994Z,25.08
2019-02-24T21:02:47.091Z,26.20
2019-02-24T21:05:16.217Z,23.55
2019-02-24T21:07:46.476Z,23.22
2019-02-24T21:10:15.740Z,24.60
2019-02-24T21:12:44.841Z,23.83
2019-02-24T21:15:14.180Z,27.32
2019-02-24T21:17:43.303Z,24.10
2019-02-24T21:20:15.187Z,25.40
2019-02-24T21:22:44.293Z,28.07
2019-02-24T21:25:13.710Z,24.35
2019-02-24T21:27:42.903Z,25.08
2019-02-24T21:30:14.227Z,20.55
2019-02-24T21:32:43.352Z,21.70
2019-02-24T21:35:12.775Z,20.95
2019-02-24T21:37:41.952Z,21.90
2019-02-24T21:40:11.648Z,20.65
2019-02-24T21:42:40.824Z,19.00
2019-02-24T21:45:12.603Z,21.30
2019-02-24T21:47:41.763Z,21.60
2019-02-24T21:50:12.386Z,17.52
2019-02-24T21:52:41.556Z,16.95
2019-02-24T21:55:11.452Z,18.40
2019-02-24T21:57:40.637Z,18.35
2019-02-24T22:00:12.704Z,19.05
2019-02-24T22:02:41.884Z,17.82
2019-02-24T22:05:11.217Z,20.92
2019-02-24T22:07:40.504Z,16.45
2019-02-24T22:10:10.421Z,17.80
2019-02-24T22:12:39.617Z,17.70
2019-02-24T22:15:11.272Z,15.90
2019-02-24T22:17:40.383Z,20.85
2019-02-24T22:20:09.697Z,15.85
2019-02-24T22:22:38.813Z,18.70
2019-02-24T22:25:08.984Z,15.88
2019-02-24T22:27:38.120Z,18.17
2019-02-24T22:30:09.724Z,20.27
2019-02-24T22:32:38.921Z,16.30
2019-02-24T22:35:08.420Z,17.25
2019-02-24T22:37:37.632Z,18.10
2019-02-24T22:40:08.384Z,17.00
2019-02-24T22:42:37.553Z,18.40
2019-02-24T22:45:08.617Z,19.77
2019-02-24T22:47:37.823Z,14.30
2019-02-24T22:50:07.670Z,19.70
2019-02-24T22:52:36.783Z,18.67
2019-02-24T22:55:06.292Z,16.93
2019-02-24T22:57:35.421Z,19.70
2019-02-24T23:00:11.765Z,16.57
2019-02-24T23:02:41.015Z,16.90
2019-02-24T23:05:11.751Z,14.15
2019-02-24T23:07:40.883Z,15.38
2019-02-24T23:10:10.293Z,16.50
2019-02-24T23:12:39.479Z,16.60
2019-02-24T23:15:08.721Z,20.37
2019-02-24T23:17:37.939Z,19.12
2019-02-24T23:20:07.235Z,16.70
2019-02-24T23:22:36.344Z,18.10
2019-02-24T23:25:05.740Z,16.27
2019-02-24T23:27:34.932Z,15.05
2019-02-24T23:30:05.107Z,16.40
2019-02-24T23:32:34.264Z,16.93
2019-02-24T23:35:03.401Z,21.10
2019-02-24T23:37:32.496Z,17.40
2019-02-24T23:40:02.892Z,18.37
2019-02-24T23:42:31.975Z,16.42
2019-02-24T23:45:09.872Z,16.52
2019-02-24T23:47:31.909Z,13.83
2019-02-24T23:50:01.006Z,15.72
2019-02-24T23:52:30.154Z,18.67
2019-02-24T23:54:59.320Z,15.05
2019-02-24T23:57:28.444Z,17.12
2019-02-24T23:59:57.596Z,17.90
